KENW/ENW METAR and TAF weather

Enter ICAO airport designator
Station Type Date Time Source
KENW METAR 2020/01/20 15:53 UTC NOAA

KENW 201553Z 35008KT 10SM CLR M05/M10 A3060 RMK AO2 SLP374 T10501100 $


Station Type Date Time Source
KENW Decoded METAR 2020/01/20 15:53 UTC NOAA

KENOSHA REGIONAL AIRPORT, WI, United States (KENW) 42-36N 087-56W 219M
Jan 20, 2020 - 10:53 AM EST / 2020.01.20 1553 UTC
Wind: from the N (350 degrees) at 9 MPH (8 KT):0
Visibility: 10 mile(s):0
Sky conditions: clear
Temperature: 23.0 F (-5.0 C)
Windchill: 14 F (-10 C):1
Dew Point: 14.0 F (-10.0 C)
Relative Humidity: 67%
Pressure (altimeter): 30.6 in. Hg (1036 hPa)
ob: KENW 201553Z 35008KT 10SM CLR M05/M10 A3060 RMK AO2 SLP374 T10501100
cycle: 16

Station Type Date Time Source
KENW TAF 2020/01/20 15:18 UTC NOAA

TAF
AMD KENW 201516Z 2015/2112 33006KT P6SM FEW030
FM202300 32005KT P6SM FEW250
FM210700 29005KT P6SM FEW250

Example: see airport list